sensor_id;sensor_type;location;lat;lon;timestamp;P1;durP1;ratioP1;P2;durP2;ratioP2
25503;SDS011;13410;52.114;5.718;2022-12-07T00:01:33;21.23;;;12.75;;
25503;SDS011;13410;52.114;5.718;2022-12-07T00:04:01;21.45;;;12.60;;
25503;SDS011;13410;52.114;5.718;2022-12-07T00:08:57;18.23;;;11.68;;
25503;SDS011;13410;52.114;5.718;2022-12-07T00:11:23;20.48;;;11.70;;
25503;SDS011;13410;52.114;5.718;2022-12-07T00:13:57;17.75;;;8.95;;
25503;SDS011;13410;52.114;5.718;2022-12-07T00:16:26;17.27;;;8.70;;
25503;SDS011;13410;52.114;5.718;2022-12-07T00:18:54;15.73;;;8.27;;
25503;SDS011;13410;52.114;5.718;2022-12-07T00:21:21;12.60;;;8.57;;
25503;SDS011;13410;52.114;5.718;2022-12-07T00:23:48;19.00;;;8.38;;
25503;SDS011;13410;52.114;5.718;2022-12-07T00:26:17;16.38;;;8.43;;
25503;SDS011;13410;52.114;5.718;2022-12-07T00:28:45;13.70;;;8.35;;
25503;SDS011;13410;52.114;5.718;2022-12-07T00:31:12;12.18;;;7.88;;
25503;SDS011;13410;52.114;5.718;2022-12-07T00:33:39;16.17;;;7.88;;
25503;SDS011;13410;52.114;5.718;2022-12-07T00:36:09;13.43;;;7.43;;
25503;SDS011;13410;52.114;5.718;2022-12-07T00:38:36;12.75;;;7.10;;
25503;SDS011;13410;52.114;5.718;2022-12-07T00:41:04;12.30;;;7.32;;
25503;SDS011;13410;52.114;5.718;2022-12-07T00:43:38;13.32;;;7.30;;
25503;SDS011;13410;52.114;5.718;2022-12-07T00:46:04;14.85;;;7.72;;
25503;SDS011;13410;52.114;5.718;2022-12-07T00:48:30;12.73;;;7.47;;
25503;SDS011;13410;52.114;5.718;2022-12-07T00:50:56;12.20;;;7.40;;
25503;SDS011;13410;52.114;5.718;2022-12-07T00:53:21;12.05;;;7.20;;
25503;SDS011;13410;52.114;5.718;2022-12-07T00:55:48;10.95;;;7.47;;
25503;SDS011;13410;52.114;5.718;2022-12-07T00:58:13;13.32;;;7.53;;
25503;SDS011;13410;52.114;5.718;2022-12-07T01:00:39;14.65;;;8.00;;
25503;SDS011;13410;52.114;5.718;2022-12-07T01:03:06;18.27;;;7.78;;
25503;SDS011;13410;52.114;5.718;2022-12-07T01:05:34;12.75;;;7.28;;
25503;SDS011;13410;52.114;5.718;2022-12-07T01:08:00;14.48;;;7.25;;
25503;SDS011;13410;52.114;5.718;2022-12-07T01:10:26;12.02;;;7.25;;
25503;SDS011;13410;52.114;5.718;2022-12-07T01:12:52;11.13;;;7.50;;
25503;SDS011;13410;52.114;5.718;2022-12-07T01:15:18;14.40;;;7.60;;
25503;SDS011;13410;52.114;5.718;2022-12-07T01:17:43;17.45;;;8.13;;
25503;SDS011;13410;52.114;5.718;2022-12-07T01:20:09;13.95;;;8.15;;
25503;SDS011;13410;52.114;5.718;2022-12-07T01:22:39;16.60;;;7.78;;
25503;SDS011;13410;52.114;5.718;2022-12-07T01:25:06;11.50;;;7.83;;
25503;SDS011;13410;52.114;5.718;2022-12-07T01:27:33;16.52;;;8.35;;
25503;SDS011;13410;52.114;5.718;2022-12-07T01:29:59;15.95;;;8.23;;
25503;SDS011;13410;52.114;5.718;2022-12-07T01:32:25;14.18;;;8.48;;
25503;SDS011;13410;52.114;5.718;2022-12-07T01:34:51;16.33;;;7.90;;
25503;SDS011;13410;52.114;5.718;2022-12-07T01:37:16;15.65;;;8.07;;
25503;SDS011;13410;52.114;5.718;2022-12-07T01:39:42;14.05;;;8.43;;
25503;SDS011;13410;52.114;5.718;2022-12-07T01:42:09;13.77;;;8.32;;
25503;SDS011;13410;52.114;5.718;2022-12-07T01:47:39;14.35;;;8.25;;
25503;SDS011;13410;52.114;5.718;2022-12-07T01:50:07;17.73;;;8.43;;
25503;SDS011;13410;52.114;5.718;2022-12-07T01:52:33;16.98;;;8.75;;
25503;SDS011;13410;52.114;5.718;2022-12-07T01:55:10;12.55;;;8.13;;
25503;SDS011;13410;52.114;5.718;2022-12-07T01:57:39;15.82;;;8.88;;
25503;SDS011;13410;52.114;5.718;2022-12-07T02:00:08;18.30;;;8.45;;
25503;SDS011;13410;52.114;5.718;2022-12-07T02:02:43;17.88;;;8.82;;
25503;SDS011;13410;52.114;5.718;2022-12-07T02:05:33;18.23;;;8.57;;
25503;SDS011;13410;52.114;5.718;2022-12-07T02:08:00;15.70;;;8.88;;
25503;SDS011;13410;52.114;5.718;2022-12-07T02:10:28;16.15;;;8.88;;
25503;SDS011;13410;52.114;5.718;2022-12-07T02:13:03;16.83;;;9.43;;
25503;SDS011;13410;52.114;5.718;2022-12-07T02:15:42;18.23;;;8.55;;
25503;SDS011;13410;52.114;5.718;2022-12-07T02:18:32;20.80;;;9.30;;
25503;SDS011;13410;52.114;5.718;2022-12-07T02:21:16;16.27;;;9.10;;
25503;SDS011;13410;52.114;5.718;2022-12-07T02:27:01;14.90;;;8.25;;
25503;SDS011;13410;52.114;5.718;2022-12-07T02:29:40;17.77;;;9.63;;
25503;SDS011;13410;52.114;5.718;2022-12-07T02:32:24;23.40;;;10.75;;
25503;SDS011;13410;52.114;5.718;2022-12-07T02:35:07;20.73;;;10.48;;
25503;SDS011;13410;52.114;5.718;2022-12-07T02:40:37;18.80;;;8.00;;
25503;SDS011;13410;52.114;5.718;2022-12-07T02:43:19;15.43;;;8.07;;
25503;SDS011;13410;52.114;5.718;2022-12-07T02:46:01;14.05;;;7.65;;
25503;SDS011;13410;52.114;5.718;2022-12-07T02:48:31;17.75;;;8.73;;
25503;SDS011;13410;52.114;5.718;2022-12-07T02:50:58;13.82;;;9.05;;
25503;SDS011;13410;52.114;5.718;2022-12-07T02:53:34;20.20;;;9.25;;
25503;SDS011;13410;52.114;5.718;2022-12-07T03:07:29;15.48;;;6.57;;
25503;SDS011;13410;52.114;5.718;2022-12-07T03:10:22;16.27;;;5.72;;
25503;SDS011;13410;52.114;5.718;2022-12-07T03:18:11;12.77;;;5.43;;
25503;SDS011;13410;52.114;5.718;2022-12-07T03:20:38;11.18;;;5.32;;
25503;SDS011;13410;52.114;5.718;2022-12-07T03:23:07;14.10;;;5.82;;
25503;SDS011;13410;52.114;5.718;2022-12-07T03:25:35;11.43;;;5.75;;
25503;SDS011;13410;52.114;5.718;2022-12-07T03:28:06;12.63;;;5.78;;
25503;SDS011;13410;52.114;5.718;2022-12-07T03:30:38;12.32;;;5.70;;
25503;SDS011;13410;52.114;5.718;2022-12-07T03:33:17;12.07;;;4.95;;
25503;SDS011;13410;52.114;5.718;2022-12-07T03:35:51;11.63;;;5.03;;
25503;SDS011;13410;52.114;5.718;2022-12-07T03:38:25;12.57;;;4.70;;
25503;SDS011;13410;52.114;5.718;2022-12-07T03:43:36;9.27;;;4.22;;
25503;SDS011;13410;52.114;5.718;2022-12-07T03:46:10;14.02;;;4.93;;
25503;SDS011;13410;52.114;5.718;2022-12-07T03:49:02;10.02;;;4.00;;
25503;SDS011;13410;52.114;5.718;2022-12-07T03:51:38;12.00;;;3.90;;
25503;SDS011;13410;52.114;5.718;2022-12-07T03:54:18;11.30;;;3.45;;
25503;SDS011;13410;52.114;5.718;2022-12-07T03:56:49;12.50;;;3.83;;
25503;SDS011;13410;52.114;5.718;2022-12-07T03:59:16;13.45;;;4.18;;
25503;SDS011;13410;52.114;5.718;2022-12-07T04:01:43;8.38;;;3.53;;
25503;SDS011;13410;52.114;5.718;2022-12-07T04:04:10;8.40;;;3.78;;
25503;SDS011;13410;52.114;5.718;2022-12-07T04:06:35;6.65;;;3.50;;
25503;SDS011;13410;52.114;5.718;2022-12-07T04:09:01;15.02;;;3.58;;
25503;SDS011;13410;52.114;5.718;2022-12-07T04:11:27;12.63;;;3.60;;
25503;SDS011;13410;52.114;5.718;2022-12-07T04:13:52;9.73;;;3.40;;
25503;SDS011;13410;52.114;5.718;2022-12-07T04:16:36;14.18;;;3.38;;
25503;SDS011;13410;52.114;5.718;2022-12-07T04:19:02;8.25;;;2.97;;
25503;SDS011;13410;52.114;5.718;2022-12-07T04:21:27;11.15;;;3.35;;
25503;SDS011;13410;52.114;5.718;2022-12-07T04:23:53;14.07;;;4.07;;
25503;SDS011;13410;52.114;5.718;2022-12-07T04:26:19;12.85;;;3.90;;
25503;SDS011;13410;52.114;5.718;2022-12-07T04:28:44;7.22;;;3.60;;
25503;SDS011;13410;52.114;5.718;2022-12-07T04:31:10;11.32;;;3.47;;
25503;SDS011;13410;52.114;5.718;2022-12-07T04:33:35;8.13;;;3.50;;
25503;SDS011;13410;52.114;5.718;2022-12-07T04:36:01;6.93;;;3.38;;
25503;SDS011;13410;52.114;5.718;2022-12-07T04:38:27;8.07;;;3.38;;
25503;SDS011;13410;52.114;5.718;2022-12-07T04:40:52;7.43;;;2.75;;
25503;SDS011;13410;52.114;5.718;2022-12-07T04:43:18;11.85;;;3.35;;
25503;SDS011;13410;52.114;5.718;2022-12-07T04:45:47;6.57;;;2.72;;
25503;SDS011;13410;52.114;5.718;2022-12-07T04:48:13;11.15;;;3.30;;
25503;SDS011;13410;52.114;5.718;2022-12-07T04:50:39;12.05;;;3.38;;
25503;SDS011;13410;52.114;5.718;2022-12-07T04:53:04;13.18;;;3.53;;
25503;SDS011;13410;52.114;5.718;2022-12-07T04:55:30;13.25;;;3.13;;
25503;SDS011;13410;52.114;5.718;2022-12-07T04:57:55;9.35;;;3.08;;
25503;SDS011;13410;52.114;5.718;2022-12-07T05:00:21;9.55;;;3.15;;
25503;SDS011;13410;52.114;5.718;2022-12-07T05:02:47;14.57;;;4.38;;
25503;SDS011;13410;52.114;5.718;2022-12-07T05:05:12;12.45;;;4.50;;
25503;SDS011;13410;52.114;5.718;2022-12-07T05:07:38;12.68;;;3.50;;
25503;SDS011;13410;52.114;5.718;2022-12-07T05:10:04;11.00;;;3.97;;
25503;SDS011;13410;52.114;5.718;2022-12-07T05:12:30;15.52;;;3.78;;
25503;SDS011;13410;52.114;5.718;2022-12-07T05:14:56;8.10;;;3.00;;
25503;SDS011;13410;52.114;5.718;2022-12-07T05:17:21;7.47;;;2.83;;
25503;SDS011;13410;52.114;5.718;2022-12-07T05:19:47;6.43;;;2.85;;
25503;SDS011;13410;52.114;5.718;2022-12-07T05:22:12;8.27;;;2.80;;
25503;SDS011;13410;52.114;5.718;2022-12-07T05:24:39;7.35;;;2.50;;
25503;SDS011;13410;52.114;5.718;2022-12-07T05:27:04;11.57;;;3.15;;
25503;SDS011;13410;52.114;5.718;2022-12-07T05:29:30;9.48;;;2.65;;
25503;SDS011;13410;52.114;5.718;2022-12-07T05:31:55;8.80;;;2.88;;
25503;SDS011;13410;52.114;5.718;2022-12-07T05:34:21;10.45;;;2.90;;
25503;SDS011;13410;52.114;5.718;2022-12-07T05:36:46;7.90;;;3.08;;
25503;SDS011;13410;52.114;5.718;2022-12-07T05:39:12;7.70;;;3.20;;
25503;SDS011;13410;52.114;5.718;2022-12-07T05:41:38;8.00;;;3.05;;
25503;SDS011;13410;52.114;5.718;2022-12-07T05:44:22;11.90;;;3.67;;
25503;SDS011;13410;52.114;5.718;2022-12-07T05:46:47;10.38;;;4.03;;
25503;SDS011;13410;52.114;5.718;2022-12-07T05:49:13;12.68;;;3.97;;
25503;SDS011;13410;52.114;5.718;2022-12-07T05:51:39;9.75;;;3.03;;
25503;SDS011;13410;52.114;5.718;2022-12-07T05:54:04;9.70;;;4.00;;
25503;SDS011;13410;52.114;5.718;2022-12-07T05:56:30;14.82;;;3.92;;
25503;SDS011;13410;52.114;5.718;2022-12-07T05:58:55;11.73;;;4.47;;
25503;SDS011;13410;52.114;5.718;2022-12-07T06:01:39;13.23;;;4.65;;
25503;SDS011;13410;52.114;5.718;2022-12-07T06:04:05;13.52;;;5.65;;
25503;SDS011;13410;52.114;5.718;2022-12-07T06:06:31;16.02;;;6.68;;
25503;SDS011;13410;52.114;5.718;2022-12-07T06:08:56;17.13;;;5.50;;
25503;SDS011;13410;52.114;5.718;2022-12-07T06:11:22;21.47;;;8.90;;
25503;SDS011;13410;52.114;5.718;2022-12-07T06:14:06;15.65;;;7.03;;
25503;SDS011;13410;52.114;5.718;2022-12-07T06:16:31;18.08;;;6.22;;
25503;SDS011;13410;52.114;5.718;2022-12-07T06:18:57;11.88;;;4.47;;
25503;SDS011;13410;52.114;5.718;2022-12-07T06:21:23;7.30;;;3.55;;
25503;SDS011;13410;52.114;5.718;2022-12-07T06:23:50;10.35;;;2.88;;
25503;SDS011;13410;52.114;5.718;2022-12-07T06:26:16;12.73;;;3.20;;
25503;SDS011;13410;52.114;5.718;2022-12-07T06:28:41;7.65;;;3.80;;
25503;SDS011;13410;52.114;5.718;2022-12-07T06:31:07;17.40;;;5.63;;
25503;SDS011;13410;52.114;5.718;2022-12-07T06:33:32;21.60;;;8.23;;
25503;SDS011;13410;52.114;5.718;2022-12-07T06:35:58;25.00;;;10.30;;
25503;SDS011;13410;52.114;5.718;2022-12-07T06:38:24;17.85;;;6.60;;
25503;SDS011;13410;52.114;5.718;2022-12-07T06:40:49;20.30;;;8.07;;
25503;SDS011;13410;52.114;5.718;2022-12-07T06:43:15;19.75;;;9.32;;
25503;SDS011;13410;52.114;5.718;2022-12-07T06:45:41;17.52;;;8.18;;
25503;SDS011;13410;52.114;5.718;2022-12-07T06:48:06;14.70;;;7.75;;
25503;SDS011;13410;52.114;5.718;2022-12-07T06:50:32;21.38;;;7.68;;
25503;SDS011;13410;52.114;5.718;2022-12-07T06:52:58;23.88;;;8.40;;
25503;SDS011;13410;52.114;5.718;2022-12-07T06:55:23;21.08;;;8.82;;
25503;SDS011;13410;52.114;5.718;2022-12-07T06:57:49;26.73;;;10.30;;
25503;SDS011;13410;52.114;5.718;2022-12-07T07:00:14;19.77;;;7.40;;
25503;SDS011;13410;52.114;5.718;2022-12-07T07:02:41;12.07;;;6.45;;
25503;SDS011;13410;52.114;5.718;2022-12-07T07:05:06;13.63;;;5.68;;
25503;SDS011;13410;52.114;5.718;2022-12-07T07:07:32;14.07;;;5.20;;
25503;SDS011;13410;52.114;5.718;2022-12-07T07:09:58;11.65;;;3.78;;
25503;SDS011;13410;52.114;5.718;2022-12-07T07:12:23;15.60;;;3.55;;
25503;SDS011;13410;52.114;5.718;2022-12-07T07:14:49;10.65;;;2.90;;
25503;SDS011;13410;52.114;5.718;2022-12-07T07:17:14;9.18;;;3.55;;
25503;SDS011;13410;52.114;5.718;2022-12-07T07:19:40;12.73;;;4.82;;
25503;SDS011;13410;52.114;5.718;2022-12-07T07:22:05;12.07;;;4.50;;
25503;SDS011;13410;52.114;5.718;2022-12-07T07:24:31;15.25;;;4.68;;
25503;SDS011;13410;52.114;5.718;2022-12-07T07:26:57;12.05;;;4.53;;
25503;SDS011;13410;52.114;5.718;2022-12-07T07:29:22;12.57;;;3.75;;
25503;SDS011;13410;52.114;5.718;2022-12-07T07:31:48;9.98;;;3.00;;
25503;SDS011;13410;52.114;5.718;2022-12-07T07:34:14;13.38;;;3.30;;
25503;SDS011;13410;52.114;5.718;2022-12-07T07:36:40;24.23;;;9.13;;
25503;SDS011;13410;52.114;5.718;2022-12-07T07:39:05;25.27;;;13.55;;
25503;SDS011;13410;52.114;5.718;2022-12-07T07:41:31;16.52;;;9.77;;
25503;SDS011;13410;52.114;5.718;2022-12-07T07:43:57;19.05;;;6.97;;
25503;SDS011;13410;52.114;5.718;2022-12-07T07:46:22;16.90;;;7.68;;
25503;SDS011;13410;52.114;5.718;2022-12-07T07:48:48;13.23;;;6.22;;
25503;SDS011;13410;52.114;5.718;2022-12-07T07:51:14;13.27;;;6.90;;
25503;SDS011;13410;52.114;5.718;2022-12-07T07:53:39;16.13;;;6.40;;
25503;SDS011;13410;52.114;5.718;2022-12-07T07:56:05;19.42;;;8.52;;
25503;SDS011;13410;52.114;5.718;2022-12-07T07:58:30;24.60;;;13.13;;
25503;SDS011;13410;52.114;5.718;2022-12-07T08:00:56;23.58;;;8.55;;
25503;SDS011;13410;52.114;5.718;2022-12-07T08:03:21;21.63;;;7.90;;
25503;SDS011;13410;52.114;5.718;2022-12-07T08:05:47;14.60;;;6.80;;
25503;SDS011;13410;52.114;5.718;2022-12-07T08:08:13;22.85;;;9.43;;
25503;SDS011;13410;52.114;5.718;2022-12-07T08:10:38;19.25;;;9.07;;
25503;SDS011;13410;52.114;5.718;2022-12-07T08:13:04;24.75;;;11.32;;
25503;SDS011;13410;52.114;5.718;2022-12-07T08:15:46;28.05;;;11.38;;
25503;SDS011;13410;52.114;5.718;2022-12-07T08:18:15;25.20;;;9.25;;
25503;SDS011;13410;52.114;5.718;2022-12-07T08:20:44;26.33;;;14.05;;
25503;SDS011;13410;52.114;5.718;2022-12-07T08:23:09;40.75;;;20.45;;
25503;SDS011;13410;52.114;5.718;2022-12-07T08:25:38;31.02;;;12.82;;
25503;SDS011;13410;52.114;5.718;2022-12-07T08:28:04;21.10;;;8.82;;
25503;SDS011;13410;52.114;5.718;2022-12-07T08:30:30;15.18;;;7.20;;
25503;SDS011;13410;52.114;5.718;2022-12-07T08:32:56;17.50;;;7.55;;
25503;SDS011;13410;52.114;5.718;2022-12-07T08:35:22;16.00;;;6.68;;
25503;SDS011;13410;52.114;5.718;2022-12-07T08:37:48;14.63;;;6.47;;
25503;SDS011;13410;52.114;5.718;2022-12-07T08:40:14;20.50;;;8.93;;
25503;SDS011;13410;52.114;5.718;2022-12-07T08:42:43;21.77;;;8.15;;
25503;SDS011;13410;52.114;5.718;2022-12-07T08:45:10;18.30;;;7.57;;
25503;SDS011;13410;52.114;5.718;2022-12-07T08:47:40;12.80;;;4.90;;
25503;SDS011;13410;52.114;5.718;2022-12-07T08:50:09;12.88;;;3.97;;
25503;SDS011;13410;52.114;5.718;2022-12-07T08:52:37;8.80;;;3.47;;
25503;SDS011;13410;52.114;5.718;2022-12-07T08:55:04;13.13;;;4.13;;
25503;SDS011;13410;52.114;5.718;2022-12-07T08:57:31;15.20;;;5.97;;
25503;SDS011;13410;52.114;5.718;2022-12-07T08:59:59;15.60;;;7.30;;
25503;SDS011;13410;52.114;5.718;2022-12-07T09:02:24;15.82;;;5.70;;
25503;SDS011;13410;52.114;5.718;2022-12-07T09:04:50;10.43;;;4.93;;
25503;SDS011;13410;52.114;5.718;2022-12-07T09:07:16;14.02;;;5.68;;
25503;SDS011;13410;52.114;5.718;2022-12-07T09:09:41;12.30;;;4.85;;
25503;SDS011;13410;52.114;5.718;2022-12-07T09:12:07;8.90;;;2.83;;
25503;SDS011;13410;52.114;5.718;2022-12-07T09:14:33;7.65;;;3.58;;
25503;SDS011;13410;52.114;5.718;2022-12-07T09:17:08;10.00;;;3.58;;
25503;SDS011;13410;52.114;5.718;2022-12-07T09:19:37;6.97;;;3.22;;
25503;SDS011;13410;52.114;5.718;2022-12-07T09:22:03;17.63;;;9.10;;
25503;SDS011;13410;52.114;5.718;2022-12-07T09:24:30;69.95;;;31.58;;
25503;SDS011;13410;52.114;5.718;2022-12-07T09:26:56;42.22;;;19.80;;
25503;SDS011;13410;52.114;5.718;2022-12-07T09:29:22;28.98;;;15.75;;
25503;SDS011;13410;52.114;5.718;2022-12-07T09:31:48;17.20;;;8.70;;
25503;SDS011;13410;52.114;5.718;2022-12-07T09:34:13;18.63;;;7.82;;
25503;SDS011;13410;52.114;5.718;2022-12-07T09:36:41;14.02;;;6.25;;
25503;SDS011;13410;52.114;5.718;2022-12-07T09:39:07;14.60;;;7.07;;
25503;SDS011;13410;52.114;5.718;2022-12-07T09:41:33;14.18;;;4.70;;
25503;SDS011;13410;52.114;5.718;2022-12-07T09:44:10;15.45;;;5.18;;
25503;SDS011;13410;52.114;5.718;2022-12-07T09:46:39;12.35;;;4.78;;
25503;SDS011;13410;52.114;5.718;2022-12-07T09:49:18;10.38;;;4.53;;
25503;SDS011;13410;52.114;5.718;2022-12-07T09:51:55;7.07;;;3.10;;
25503;SDS011;13410;52.114;5.718;2022-12-07T09:54:42;12.02;;;6.10;;
25503;SDS011;13410;52.114;5.718;2022-12-07T09:57:12;10.25;;;4.00;;
25503;SDS011;13410;52.114;5.718;2022-12-07T09:59:38;9.45;;;4.30;;
25503;SDS011;13410;52.114;5.718;2022-12-07T10:05:00;10.73;;;5.97;;
25503;SDS011;13410;52.114;5.718;2022-12-07T10:07:29;11.07;;;3.50;;
25503;SDS011;13410;52.114;5.718;2022-12-07T10:09:54;9.73;;;3.00;;
25503;SDS011;13410;52.114;5.718;2022-12-07T10:12:20;12.45;;;3.58;;
25503;SDS011;13410;52.114;5.718;2022-12-07T10:15:19;10.48;;;3.80;;
25503;SDS011;13410;52.114;5.718;2022-12-07T10:17:39;9.73;;;3.60;;
25503;SDS011;13410;52.114;5.718;2022-12-07T10:23:02;9.70;;;3.67;;
25503;SDS011;13410;52.114;5.718;2022-12-07T10:25:30;10.07;;;3.00;;
25503;SDS011;13410;52.114;5.718;2022-12-07T10:27:59;8.05;;;2.90;;
25503;SDS011;13410;52.114;5.718;2022-12-07T10:36:18;41.08;;;21.00;;
25503;SDS011;13410;52.114;5.718;2022-12-07T10:38:49;9.45;;;3.40;;
25503;SDS011;13410;52.114;5.718;2022-12-07T10:43:47;9.18;;;2.78;;
25503;SDS011;13410;52.114;5.718;2022-12-07T10:51:33;13.88;;;5.40;;
25503;SDS011;13410;52.114;5.718;2022-12-07T10:54:16;16.23;;;5.97;;
25503;SDS011;13410;52.114;5.718;2022-12-07T10:57:14;8.73;;;3.72;;
25503;SDS011;13410;52.114;5.718;2022-12-07T11:05:14;8.75;;;2.00;;
25503;SDS011;13410;52.114;5.718;2022-12-07T11:07:46;6.72;;;2.97;;
25503;SDS011;13410;52.114;5.718;2022-12-07T11:13:25;17.35;;;7.05;;
25503;SDS011;13410;52.114;5.718;2022-12-07T11:18:53;12.63;;;4.57;;
25503;SDS011;13410;52.114;5.718;2022-12-07T11:24:12;26.65;;;9.32;;
25503;SDS011;13410;52.114;5.718;2022-12-07T11:27:02;18.42;;;6.28;;
25503;SDS011;13410;52.114;5.718;2022-12-07T11:29:44;52.75;;;17.80;;
25503;SDS011;13410;52.114;5.718;2022-12-07T11:37:44;11.98;;;6.18;;
25503;SDS011;13410;52.114;5.718;2022-12-07T11:40:29;11.13;;;4.78;;
25503;SDS011;13410;52.114;5.718;2022-12-07T11:43:02;13.32;;;4.03;;
25503;SDS011;13410;52.114;5.718;2022-12-07T11:46:02;6.28;;;2.72;;
25503;SDS011;13410;52.114;5.718;2022-12-07T11:48:35;9.32;;;3.13;;
25503;SDS011;13410;52.114;5.718;2022-12-07T11:51:20;4.65;;;2.83;;
25503;SDS011;13410;52.114;5.718;2022-12-07T11:53:55;5.82;;;2.75;;
25503;SDS011;13410;52.114;5.718;2022-12-07T11:56:25;7.03;;;2.10;;
25503;SDS011;13410;52.114;5.718;2022-12-07T11:59:01;8.27;;;2.17;;
25503;SDS011;13410;52.114;5.718;2022-12-07T12:06:39;6.50;;;1.27;;
25503;SDS011;13410;52.114;5.718;2022-12-07T12:19:45;5.15;;;1.35;;
25503;SDS011;13410;52.114;5.718;2022-12-07T12:22:32;7.53;;;3.75;;
25503;SDS011;13410;52.114;5.718;2022-12-07T12:25:09;11.40;;;3.30;;
25503;SDS011;13410;52.114;5.718;2022-12-07T12:32:49;16.23;;;6.88;;
25503;SDS011;13410;52.114;5.718;2022-12-07T12:35:30;13.27;;;5.75;;
25503;SDS011;13410;52.114;5.718;2022-12-07T12:41:01;9.82;;;4.20;;
25503;SDS011;13410;52.114;5.718;2022-12-07T12:43:40;7.38;;;2.60;;
25503;SDS011;13410;52.114;5.718;2022-12-07T12:51:43;8.63;;;2.40;;
25503;SDS011;13410;52.114;5.718;2022-12-07T12:54:23;33.75;;;19.85;;
25503;SDS011;13410;52.114;5.718;2022-12-07T12:56:55;9.83;;;4.27;;
25503;SDS011;13410;52.114;5.718;2022-12-07T12:59:42;8.20;;;3.25;;
25503;SDS011;13410;52.114;5.718;2022-12-07T13:02:37;13.32;;;6.35;;
25503;SDS011;13410;52.114;5.718;2022-12-07T13:20:57;8.00;;;2.70;;
25503;SDS011;13410;52.114;5.718;2022-12-07T13:34:49;4.63;;;0.90;;
25503;SDS011;13410;52.114;5.718;2022-12-07T13:39:57;5.55;;;1.05;;
25503;SDS011;13410;52.114;5.718;2022-12-07T13:42:25;6.38;;;2.70;;
25503;SDS011;13410;52.114;5.718;2022-12-07T13:44:51;7.13;;;2.97;;
25503;SDS011;13410;52.114;5.718;2022-12-07T13:52:56;6.50;;;2.58;;
25503;SDS011;13410;52.114;5.718;2022-12-07T13:55:23;5.43;;;2.15;;
25503;SDS011;13410;52.114;5.718;2022-12-07T13:58:04;7.72;;;3.83;;
25503;SDS011;13410;52.114;5.718;2022-12-07T14:00:39;5.85;;;2.90;;
25503;SDS011;13410;52.114;5.718;2022-12-07T14:03:34;6.75;;;4.57;;
25503;SDS011;13410;52.114;5.718;2022-12-07T14:06:05;9.90;;;5.00;;
25503;SDS011;13410;52.114;5.718;2022-12-07T14:17:50;8.38;;;5.05;;
25503;SDS011;13410;52.114;5.718;2022-12-07T14:22:55;9.18;;;3.65;;
25503;SDS011;13410;52.114;5.718;2022-12-07T14:25:25;20.38;;;8.15;;
25503;SDS011;13410;52.114;5.718;2022-12-07T14:27:52;25.23;;;8.43;;
25503;SDS011;13410;52.114;5.718;2022-12-07T14:30:21;8.35;;;4.00;;
25503;SDS011;13410;52.114;5.718;2022-12-07T14:32:53;5.65;;;3.40;;
25503;SDS011;13410;52.114;5.718;2022-12-07T14:35:24;7.30;;;3.20;;
25503;SDS011;13410;52.114;5.718;2022-12-07T14:37:50;8.75;;;2.90;;
25503;SDS011;13410;52.114;5.718;2022-12-07T14:40:17;6.60;;;2.17;;
25503;SDS011;13410;52.114;5.718;2022-12-07T14:42:45;6.65;;;3.28;;
25503;SDS011;13410;52.114;5.718;2022-12-07T14:45:13;8.00;;;4.00;;
25503;SDS011;13410;52.114;5.718;2022-12-07T14:47:42;10.73;;;4.40;;
25503;SDS011;13410;52.114;5.718;2022-12-07T14:50:10;10.10;;;6.28;;
25503;SDS011;13410;52.114;5.718;2022-12-07T14:52:37;10.30;;;6.78;;
25503;SDS011;13410;52.114;5.718;2022-12-07T14:55:07;15.40;;;7.10;;
25503;SDS011;13410;52.114;5.718;2022-12-07T14:57:39;10.25;;;5.00;;
25503;SDS011;13410;52.114;5.718;2022-12-07T15:00:04;11.85;;;4.80;;
25503;SDS011;13410;52.114;5.718;2022-12-07T15:02:30;11.65;;;5.10;;
25503;SDS011;13410;52.114;5.718;2022-12-07T15:04:56;15.55;;;5.65;;
25503;SDS011;13410;52.114;5.718;2022-12-07T15:07:22;14.85;;;5.15;;
25503;SDS011;13410;52.114;5.718;2022-12-07T15:09:48;13.82;;;5.82;;
25503;SDS011;13410;52.114;5.718;2022-12-07T15:12:14;20.92;;;11.77;;
25503;SDS011;13410;52.114;5.718;2022-12-07T15:14:40;22.33;;;12.38;;
25503;SDS011;13410;52.114;5.718;2022-12-07T15:17:06;21.95;;;11.63;;
25503;SDS011;13410;52.114;5.718;2022-12-07T15:19:31;19.02;;;11.77;;
25503;SDS011;13410;52.114;5.718;2022-12-07T15:21:57;20.35;;;11.02;;
25503;SDS011;13410;52.114;5.718;2022-12-07T15:24:24;23.50;;;12.40;;
25503;SDS011;13410;52.114;5.718;2022-12-07T15:26:50;39.08;;;17.58;;
25503;SDS011;13410;52.114;5.718;2022-12-07T15:29:17;14.43;;;7.88;;
25503;SDS011;13410;52.114;5.718;2022-12-07T15:31:42;15.38;;;8.82;;
25503;SDS011;13410;52.114;5.718;2022-12-07T15:34:08;14.10;;;6.95;;
25503;SDS011;13410;52.114;5.718;2022-12-07T15:36:34;42.22;;;20.75;;
25503;SDS011;13410;52.114;5.718;2022-12-07T15:39:00;34.47;;;18.55;;
25503;SDS011;13410;52.114;5.718;2022-12-07T15:41:26;23.70;;;12.75;;
25503;SDS011;13410;52.114;5.718;2022-12-07T15:43:52;24.27;;;11.90;;
25503;SDS011;13410;52.114;5.718;2022-12-07T15:46:37;19.10;;;9.23;;
25503;SDS011;13410;52.114;5.718;2022-12-07T15:49:10;25.65;;;10.48;;
25503;SDS011;13410;52.114;5.718;2022-12-07T15:51:38;16.77;;;9.63;;
25503;SDS011;13410;52.114;5.718;2022-12-07T15:54:03;22.40;;;12.25;;
25503;SDS011;13410;52.114;5.718;2022-12-07T15:56:29;18.75;;;8.93;;
25503;SDS011;13410;52.114;5.718;2022-12-07T15:58:55;17.02;;;7.47;;
25503;SDS011;13410;52.114;5.718;2022-12-07T16:01:21;15.20;;;8.95;;
25503;SDS011;13410;52.114;5.718;2022-12-07T16:03:47;12.88;;;6.30;;
25503;SDS011;13410;52.114;5.718;2022-12-07T16:06:18;9.95;;;7.15;;
25503;SDS011;13410;52.114;5.718;2022-12-07T16:08:44;9.13;;;4.85;;
25503;SDS011;13410;52.114;5.718;2022-12-07T16:11:11;12.55;;;7.05;;
25503;SDS011;13410;52.114;5.718;2022-12-07T16:13:37;9.75;;;5.05;;
25503;SDS011;13410;52.114;5.718;2022-12-07T16:16:08;7.82;;;3.63;;
25503;SDS011;13410;52.114;5.718;2022-12-07T16:18:38;9.18;;;3.53;;
25503;SDS011;13410;52.114;5.718;2022-12-07T16:21:04;9.75;;;3.13;;
25503;SDS011;13410;52.114;5.718;2022-12-07T16:23:31;13.48;;;5.47;;
25503;SDS011;13410;52.114;5.718;2022-12-07T16:26:03;29.70;;;14.82;;
25503;SDS011;13410;52.114;5.718;2022-12-07T16:28:34;26.67;;;16.25;;
25503;SDS011;13410;52.114;5.718;2022-12-07T16:31:07;23.38;;;15.60;;
25503;SDS011;13410;52.114;5.718;2022-12-07T16:33:38;15.10;;;9.05;;
25503;SDS011;13410;52.114;5.718;2022-12-07T16:36:05;16.02;;;8.32;;
25503;SDS011;13410;52.114;5.718;2022-12-07T16:38:31;19.42;;;12.07;;
25503;SDS011;13410;52.114;5.718;2022-12-07T16:40:58;16.33;;;10.50;;
25503;SDS011;13410;52.114;5.718;2022-12-07T16:43:26;16.42;;;10.27;;
25503;SDS011;13410;52.114;5.718;2022-12-07T16:45:52;22.48;;;13.02;;
25503;SDS011;13410;52.114;5.718;2022-12-07T16:48:18;22.10;;;11.82;;
25503;SDS011;13410;52.114;5.718;2022-12-07T16:50:44;40.10;;;18.15;;
25503;SDS011;13410;52.114;5.718;2022-12-07T16:53:11;28.05;;;13.65;;
25503;SDS011;13410;52.114;5.718;2022-12-07T16:55:39;15.70;;;9.02;;
25503;SDS011;13410;52.114;5.718;2022-12-07T16:58:08;16.20;;;8.32;;
25503;SDS011;13410;52.114;5.718;2022-12-07T17:00:34;11.45;;;6.43;;
25503;SDS011;13410;52.114;5.718;2022-12-07T17:03:01;11.65;;;6.72;;
25503;SDS011;13410;52.114;5.718;2022-12-07T17:05:28;13.70;;;9.88;;
25503;SDS011;13410;52.114;5.718;2022-12-07T17:07:54;13.77;;;8.50;;
25503;SDS011;13410;52.114;5.718;2022-12-07T17:10:20;14.30;;;8.82;;
25503;SDS011;13410;52.114;5.718;2022-12-07T17:12:46;31.30;;;14.68;;
25503;SDS011;13410;52.114;5.718;2022-12-07T17:15:11;45.95;;;26.02;;